Map

Track Data

SID SEASON NUMBER BASIN SUBBASIN NAME ISO_TIME NATURE LAT LON WMO_WIND WMO_PRES WMO_AGENCY TRACK_TYPE DIST2LAND LANDFALL IFLAG USA_AGENCY USA_ATCF_ID USA_LAT USA_LON USA_RECORD USA_STATUS USA_WIND USA_PRES USA_SSHS USA_R34_NE USA_R34_SE USA_R34_SW USA_R34_NW USA_R50_NE USA_R50_SE USA_R50_SW USA_R50_NW USA_R64_NE USA_R64_SE USA_R64_SW USA_R64_NW USA_POCI USA_ROCI USA_RMW USA_EYE TOKYO_LAT TOKYO_LON TOKYO_GRADE TOKYO_WIND TOKYO_PRES TOKYO_R50_DIR TOKYO_R50_LONG TOKYO_R50_SHORT TOKYO_R30_DIR TOKYO_R30_LONG TOKYO_R30_SHORT TOKYO_LAND CMA_LAT CMA_LON CMA_CAT CMA_WIND CMA_PRES HKO_LAT HKO_LON HKO_CAT HKO_WIND HKO_PRES NEWDELHI_LAT NEWDELHI_LON NEWDELHI_GRADE NEWDELHI_WIND NEWDELHI_PRES NEWDELHI_CI NEWDELHI_DP NEWDELHI_POCI REUNION_LAT REUNION_LON REUNION_TYPE REUNION_WIND REUNION_PRES REUNION_TNUM REUNION_CI REUNION_RMW REUNION_R34_NE REUNION_R34_SE REUNION_R34_SW REUNION_R34_NW REUNION_R50_NE REUNION_R50_SE REUNION_R50_SW REUNION_R50_NW REUNION_R64_NE REUNION_R64_SE REUNION_R64_SW REUNION_R64_NW BOM_LAT BOM_LON BOM_TYPE BOM_WIND BOM_PRES BOM_TNUM BOM_CI BOM_RMW BOM_R34_NE BOM_R34_SE BOM_R34_SW BOM_R34_NW BOM_R50_NE BOM_R50_SE BOM_R50_SW BOM_R50_NW BOM_R64_NE BOM_R64_SE BOM_R64_SW BOM_R64_NW BOM_ROCI BOM_POCI BOM_EYE BOM_POS_METHOD BOM_PRES_METHOD NADI_LAT NADI_LON NADI_CAT NADI_WIND NADI_PRES WELLINGTON_LAT WELLINGTON_LON WELLINGTON_WIND WELLINGTON_PRES DS824_LAT DS824_LON DS824_STAGE DS824_WIND DS824_PRES TD9636_LAT TD9636_LON TD9636_STAGE TD9636_WIND TD9636_PRES TD9635_LAT TD9635_LON TD9635_WIND TD9635_PRES TD9635_ROCI NEUMANN_LAT NEUMANN_LON NEUMANN_CLASS NEUMANN_WIND NEUMANN_PRES MLC_LAT MLC_LON MLC_CLASS MLC_WIND MLC_PRES USA_GUST BOM_GUST BOM_GUST_PER REUNION_GUST REUNION_GUST_PER USA_SEAHGT USA_SEARAD_NE USA_SEARAD_SE USA_SEARAD_SW USA_SEARAD_NW STORM_SPEED STORM_DIR
1952180N05144 1952 36 WP MM EMMA 1952-06-28 00:00:00 TS 5.35000 143.600 1002 tokyo main 904 904 OOO______OOO__ jtwc_wp WP031952 5.40000 143.600 25 -1 5.20000 143.600 2 1002 0 0 0 5.30000 143.600 1 29 1002 5.40000 143.600 TC 25 5.40000 143.600 1 25 5.40000 143.600 25 1004 120 8 348
1952180N05144 1952 36 WP MM EMMA 1952-06-28 03:00:00 TS 5.74331 143.521 main 939 939 PPP______PPP__ WP031952 5.74752 143.435 27 -1 5.74000 143.637 2 999 0 0 5.72251 143.695 1 33 999 5.74752 143.435 TC 27 5.75478 143.488 1 27 5.74752 143.435 27 1002 150 8 347
1952180N05144 1952 36 WP MM EMMA 1952-06-28 06:00:00 TS 6.11794 143.428 996 tokyo main 985 985 OOO______OPO__ jtwc_wp WP031952 6.10000 143.300 30 -1 6.20000 143.600 2 996 0 0 0 6.10000 143.700 2 38 996 6.10000 143.300 TC 30 6.10765 143.370 1 30 6.10000 143.300 30 1000 180 8 344
1952180N05144 1952 36 WP MM EMMA 1952-06-28 09:00:00 TS 6.46110 143.309 main 1031 1031 PPP______PPP__ WP031952 6.45748 143.207 32 -1 6.53000 143.438 2 995 0 0 6.40749 143.553 2 38 996 6.45748 143.207 TC 32 6.45669 143.243 1 32 6.45748 143.207 32 998 210 7 337
1952180N05144 1952 36 WP MM EMMA 1952-06-28 12:00:00 TS 6.78333 143.150 995 tokyo main 1070 1070 OOO______OOO__ jtwc_wp WP031952 6.80000 143.100 35 0 6.80000 143.200 2 995 0 0 0 6.70000 143.300 2 38 996 6.80000 143.100 TC 35 6.80000 143.100 2 35 6.80000 143.100 35 996 240 7 332
1952180N05144 1952 36 WP MM EMMA 1952-06-28 15:00:00 TS 7.10738 142.957 main 1103 1100 PPP______PPP__ WP031952 7.10748 142.930 40 0 7.11493 142.987 2 994 0 0 7.07247 143.030 2 38 995 7.10748 142.930 TC 40 7.13445 142.935 2 38 7.10748 142.930 40 994 210 8 325
1952180N05144 1952 36 WP MM EMMA 1952-06-28 18:00:00 TS 7.40868 142.705 994 tokyo main 1122 1122 OOO______OPO__ jtwc_wp WP031952 7.40000 142.700 45 0 7.40000 142.700 2 994 0 0 0 7.40000 142.700 2 38 994 7.40000 142.700 TC 45 7.45209 142.727 2 42 7.40000 142.700 45 993 180 8 316
1952180N05144 1952 36 WP MM EMMA 1952-06-28 21:00:00 TS 7.68434 142.395 main 1141 1137 PPP______PPP__ WP031952 7.72245 142.438 47 0 7.62255 142.273 2 992 0 0 7.57245 142.330 2 43 992 7.72245 142.438 TC 47 7.74369 142.456 2 46 7.72245 142.438 47 992 180 9 307
1952180N05144 1952 36 WP MM EMMA 1952-06-29 00:00:00 TS 7.91667 142.017 991 tokyo main 1145 1143 OOO______OOO__ jtwc_wp WP031952 8.00000 142.100 50 0 7.80000 141.800 9 991 0 0 0 7.70000 141.900 3 48 991 8.00000 142.100 TC 50 8.00000 142.100 2 50 8.00000 142.100 50 992 180 9 298
1952180N05144 1952 36 WP MM EMMA 1952-06-29 03:00:00 TS 8.09654 141.601 main 1150 1143 PPP______PPP__ WP031952 8.16490 141.702 57 0 7.95734 141.422 9 988 0 0 7.89996 141.423 3 53 988 8.16490 141.702 TC 57 8.22723 141.652 2 56 8.16490 141.702 57 990 210 10 290
1952180N05144 1952 36 WP MM EMMA 1952-06-29 06:00:00 TS 8.25292 141.103 986 tokyo main 1155 1146 OOO______OPO__ jtwc_wp WP031952 8.30000 141.200 65 1 8.10000 141.000 9 986 0 0 0 8.10000 140.900 3 58 986 8.30000 141.200 TC 65 8.41751 141.120 2 62 8.30000 141.200 65 989 240 11 287
1952180N05144 1952 36 WP MM EMMA 1952-06-29 09:00:00 TS 8.43405 140.500 main 1149 1141 PPP______PPP__ WP031952 8.50760 140.565 70 1 8.25006 140.423 9 985 0 0 8.25745 140.357 3 63 985 8.50760 140.565 TC 70 8.57400 140.527 2 68 8.50760 140.565 70 987 240 13 286
1952180N05144 1952 36 WP MM EMMA 1952-06-29 12:00:00 TS 8.60000 139.867 984 tokyo main 1142 1133 OOO______OOO__ jtwc_wp WP031952 8.70000 139.900 75 1 8.40000 139.800 9 984 0 0 0 8.40000 139.800 4 68 984 8.70000 139.900 TC 75 8.70000 139.900 3 75 8.70000 139.900 75 986 240 12 284
1952180N05144 1952 36 WP MM EMMA 1952-06-29 15:00:00 TS 8.73077 139.321 main 1129 1122 PPP______PPP__ WP031952 8.82220 139.365 75 1 8.55728 139.265 9 983 0 0 8.55735 139.265 4 68 983 8.82220 139.365 TC 75 8.80338 139.299 3 75 8.82220 139.365 75 984 240 11 282
1952180N05144 1952 36 WP MM EMMA 1952-06-29 18:00:00 TS 8.82990 138.744 982 tokyo main 1118 1110 OOO______OPO__ jtwc_wp WP031952 8.90000 138.800 75 1 8.70000 138.700 9 982 0 0 0 8.70000 138.700 4 68 982 8.90000 138.800 TC 75 8.87942 138.667 3 75 8.90000 138.800 75 983 240 13 278
1952180N05144 1952 36 WP MM EMMA 1952-06-29 21:00:00 TS 8.90090 138.065 main 1110 1096 PPP______PPP__ WP031952 8.94997 138.087 75 1 8.80744 138.030 9 980 0 0 8.80729 138.095 4 72 980 8.94997 138.087 TC 75 8.94076 138.002 3 75 8.94997 138.087 75 982 270 14 276
1952180N05144 1952 36 WP MM EMMA 1952-06-30 00:00:00 TS 8.96667 137.317 979 tokyo main 1103 1093 OOO______OOO__ jtwc_wp WP031952 9.00000 137.300 75 1 8.90000 137.300 9 979 0 0 0 8.90000 137.400 4 77 979 9.00000 137.300 TC 75 9.00000 137.300 4 75 9.00000 137.300 75 981 300 15 276
1952180N05144 1952 36 WP MM EMMA 1952-06-30 03:00:00 TS 9.06696 136.533 main 1101 1026 PPP______PPP__ WP031952 9.09992 136.500 75 1 9.00730 136.572 9 977 0 0 9.00755 136.573 4 77 977 9.09992 136.500 TC 75 9.08717 136.553 4 75 9.09992 136.500 75 981 330 16 277
1952180N05144 1952 36 WP MM EMMA 1952-06-30 06:00:00 TS 9.16208 135.729 975 tokyo main 1015 939 OOO______OPO__ jtwc_wp WP031952 9.20000 135.700 75 1 9.10000 135.800 9 975 0 0 0 9.10000 135.700 4 77 975 9.20000 135.700 TC 75 9.17248 135.773 4 75 9.20000 135.700 75 981 360 16 276
1952180N05144 1952 36 WP MM EMMA 1952-06-30 09:00:00 TS 9.22594 134.942 main 929 855 PPP______PPP__ WP031952 9.26480 134.942 75 1 9.15745 134.957 9 976 0 0 9.15732 134.885 4 77 976 9.26480 134.942 TC 75 9.24651 134.981 4 75 9.26480 134.942 75 980 330 15 274
1952180N05144 1952 36 WP MM EMMA 1952-06-30 12:00:00 TS 9.26667 134.167 978 tokyo main 855 769 OOO______OOO__ jtwc_wp WP031952 9.30000 134.200 75 1 9.20000 134.100 9 978 0 0 0 9.20000 134.100 4 77 978 9.30000 134.200 TC 75 9.30000 134.200 4 75 9.30000 134.200 75 980 300 15 272
1952180N05144 1952 36 WP MM EMMA 1952-06-30 15:00:00 TS 9.29112 133.392 main 769 694 PPP______PPP__ WP031952 9.30739 133.442 77 1 9.25745 133.263 9 979 0 0 9.24989 133.328 4 77 979 9.30739 133.442 TC 77 9.31723 133.436 4 76 9.30739 133.442 77 980 270 15 271
1952180N05144 1952 36 WP MM EMMA 1952-06-30 18:00:00 TS 9.30245 132.648 981 tokyo main 684 620 OOO______OPO__ jtwc_wp WP031952 9.30000 132.700 80 1 9.30000 132.500 9 981 0 0 0 9.30000 132.600 4 77 981 9.30000 132.700 TC 80 9.31473 132.690 4 77 9.30000 132.700 80 981 240 14 271
1952180N05144 1952 36 WP MM EMMA 1952-06-30 21:00:00 TS 9.31030 131.944 main 610 547 PPP______PPP__ WP031952 9.29990 131.978 80 1 9.30736 131.840 9 981 0 0 9.34987 131.920 4 77 981 9.29990 131.978 TC 80 9.30484 131.974 4 78 9.29990 131.978 80 981 240 13 271
1952180N05144 1952 36 WP MM EMMA 1952-07-01 00:00:00 TS 9.31667 131.300 981 tokyo main 547 495 OOO______OOO__ jtwc_wp WP031952 9.30000 131.300 80 1 9.30000 131.300 9 981 0 0 0 9.40000 131.300 4 77 981 9.30000 131.300 TC 80 9.30000 131.300 4 80 9.30000 131.300 80 981 240 12 270
1952180N05144 1952 36 WP MM EMMA 1952-07-01 03:00:00 TS 9.32009 130.729 main 485 432 PPP______PPP__ WP031952 9.29236 130.677 90 2 9.28465 130.915 9 977 0 0 9.44980 130.742 4 82 978 9.29236 130.677 TC 90 9.30898 130.686 4 87 9.29236 130.677 90 977 240 11 271
1952180N05144 1952 36 WP MM EMMA 1952-07-01 06:00:00 TS 9.33776 130.185 973 tokyo main 432 368 OOO______OPO__ jtwc_wp WP031952 9.30000 130.100 100 3 9.30000 130.500 9 973 0 0 0 9.50000 130.200 5 87 975 9.30000 130.100 TC 100 9.32659 130.112 4 95 9.30000 130.100 100 973 240 11 273
1952180N05144 1952 36 WP MM EMMA 1952-07-01 09:00:00 TS 9.38633 129.610 main 368 314 PPP______PPP__ WP031952 9.34234 129.550 105 3 9.38513 129.838 9 973 0 0 9.54990 129.615 5 87 974 9.34234 129.550 TC 105 9.35593 129.558 4 102 9.34234 129.550 105 970 240 12 276
1952180N05144 1952 36 WP MM EMMA 1952-07-01 12:00:00 TS 9.45000 129.017 973 tokyo main 306 243 OOO______OOO__ jtwc_wp WP031952 9.40000 129.000 110 3 9.50000 129.100 9 973 0 0 0 9.60000 129.000 5 87 973 9.40000 129.000 TC 110 9.40000 129.000 4 110 9.40000 129.000 110 968 240 12 276
1952180N05144 1952 36 WP MM EMMA 1952-07-01 15:00:00 TS 9.50407 128.407 main 243 181 PPP______PPP__ WP031952 9.44244 128.407 110 3 9.60734 128.443 9 973 0 0 9.64996 128.350 5 87 973 9.44244 128.407 TC 110 9.43982 128.427 4 110 9.44244 128.407 110 970 270 12 275
1952180N05144 1952 36 WP MM EMMA 1952-07-01 18:00:00 TS 9.56613 127.791 973 tokyo main 181 118 OOO______OPO__ jtwc_wp WP031952 9.50000 127.800 110 3 9.70000 127.800 9 973 0 0 0 9.70000 127.700 5 87 973 9.50000 127.800 TC 110 9.49676 127.844 4 110 9.50000 127.800 110 972 300 12 276
1952180N05144 1952 36 WP MM EMMA 1952-07-01 21:00:00 TS 9.63282 127.191 main 118 69 PPP______PPP__ WP031952 9.58482 127.215 110 3 9.73483 127.157 9 973 0 0 9.72727 127.107 5 87 973 9.58482 127.215 TC 110 9.58034 127.240 4 110 9.58482 127.215 110 976 270 12 278
1952180N05144 1952 36 WP MM EMMA 1952-07-02 00:00:00 TS 9.73333 126.567 974 tokyo main 69 33 OOO______OOO__ jtwc_wp WP031952 9.70000 126.600 110 3 9.80000 126.500 9 974 0 0 0 9.80000 126.500 5 87 974 9.70000 126.600 TC 110 9.70000 126.600 4 110 9.70000 126.600 110 980 240 13 281
1952180N05144 1952 36 WP MM EMMA 1952-07-02 03:00:00 TS 9.88862 125.868 main 39 15 PPP______PPP__ WP031952 9.82740 125.922 100 3 10.0001 125.770 9 975 0 0 9.98515 125.778 5 87 975 9.82740 125.922 TC 100 9.86425 125.891 4 98 9.82740 125.922 100 981 270 14 284
1952180N05144 1952 36 WP MM EMMA 1952-07-02 06:00:00 TS 10.0771 125.158 977 tokyo main 15 0 OOO______OPO__ jtwc_wp WP031952 10.0000 125.200 90 2 10.2000 125.100 9 977 0 0 0 10.2000 125.100 5 87 977 10.0000 125.200 TC 90 10.0628 125.150 4 87 10.0000 125.200 90 983 300 14 286
1952180N05144 1952 36 WP MM EMMA 1952-07-02 09:00:00 TS 10.2703 124.497 main 24 0 PPP______PPP__ WP031952 10.2425 124.443 77 1 10.2497 124.627 9 978 0 0 10.3647 124.620 5 82 978 10.2425 124.443 TC 77 10.2799 124.410 4 76 10.2425 124.443 77 984 270 13 287
1952180N05144 1952 36 WP MM EMMA 1952-07-02 12:00:00 TS 10.4667 123.867 980 tokyo main 0 0 OOO______OOO__ jtwc_wp WP031952 10.5000 123.700 65 1 10.3000 124.200 9 980 0 0 0 10.5000 124.200 4 77 980 10.5000 123.700 TC 65 10.5000 123.700 4 65 10.5000 123.700 65 985 240 13 287
1952180N05144 1952 36 WP MM EMMA 1952-07-02 15:00:00 TS 10.6492 123.239 main 0 0 PPP______PPP__ WP031952 10.7074 123.020 62 0 10.4851 123.650 9 981 0 0 10.5925 123.692 4 77 981 10.7074 123.020 TC 62 10.6956 123.031 4 61 10.7074 123.020 62 986 240 13 287
1952180N05144 1952 36 WP MM EMMA 1952-07-02 18:00:00 TS 10.8320 122.650 983 tokyo main 0 0 OOO______OPO__ jtwc_wp WP031952 10.9000 122.400 60 0 10.7000 123.100 9 983 0 0 0 10.7000 123.200 4 77 983 10.9000 122.400 TC 60 10.8922 122.402 4 57 10.9000 122.400 60 987 240 12 289
1952180N05144 1952 36 WP MM EMMA 1952-07-02 21:00:00 TS 11.0212 122.121 main 0 0 PPP______PPP__ WP031952 11.0999 121.820 55 0 10.8499 122.635 9 984 0 0 10.8848 122.807 4 77 984 11.0999 121.820 TC 55 11.0926 121.822 4 53 11.0999 121.820 55 988 210 11 291
1952180N05144 1952 36 WP MM EMMA 1952-07-03 00:00:00 TS 11.2167 121.633 985 tokyo main 54 54 OOO______OOO__ jtwc_wp WP031952 11.3000 121.300 50 0 11.0000 122.200 9 985 0 0 0 11.1000 122.400 4 77 985 11.3000 121.300 TC 50 11.3000 121.300 2 50 11.3000 121.300 50 989 180 10 292
1952180N05144 1952 36 WP MM EMMA 1952-07-03 03:00:00 TS 11.4099 121.157 main 79 74 PPP______PPP__ WP031952 11.4924 120.820 52 0 11.1774 121.765 9 986 0 0 11.2925 121.872 4 72 985 11.4924 120.820 TC 52 11.5120 120.845 2 52 11.4924 120.820 52 988 210 10 294
1952180N05144 1952 36 WP MM EMMA 1952-07-03 06:00:00 TS 11.6220 120.708 987 tokyo main 80 78 OOO______OPO__ jtwc_wp WP031952 11.7000 120.400 55 0 11.4000 121.300 9 987 0 0 0 11.5000 121.300 4 68 986 11.7000 120.400 TC 55 11.7322 120.445 2 55 11.7000 120.400 55 988 240 10 298
1952180N05144 1952 36 WP MM EMMA 1952-07-03 09:00:00 TS 11.8706 120.286 main 93 89 PPP______PPP__ WP031952 11.9424 120.042 57 0 11.6925 120.765 9 987 0 0 11.7424 120.750 4 68 986 11.9424 120.042 TC 57 11.9614 120.072 2 57 11.9424 120.042 57 986 240 10 302
1952180N05144 1952 36 WP MM EMMA 1952-07-03 12:00:00 TS 12.1333 119.867 987 tokyo main 95 92 OOO______OOO__ jtwc_wp WP031952 12.2000 119.700 60 0 12.0000 120.200 9 987 0 0 0 12.0000 120.200 4 68 986 12.2000 119.700 TC 60 12.2000 119.700 2 60 12.2000 119.700 60 985 240 10 301
1952180N05144 1952 36 WP MM EMMA 1952-07-03 15:00:00 TS 12.3816 119.415 main 123 123 PPP______PPP__ WP031952 12.4500 119.300 65 1 12.2499 119.650 9 987 0 0 12.2424 119.650 4 68 986 12.4500 119.300 TC 65 12.4475 119.292 2 65 12.4500 119.300 65 984 240 10 300
1952180N05144 1952 36 WP MM EMMA 1952-07-03 18:00:00 TS 12.6333 118.967 987 tokyo main 155 155 OOO______OOO__ jtwc_wp WP031952 12.7000 118.900 70 1 12.5000 119.100 9 987 0 0 0 12.5000 119.100 4 68 986 12.7000 118.900 TC 70 12.7000 118.900 3 70 12.7000 118.900 70 984 240 10 300
1952180N05144 1952 36 WP MM EMMA 1952-07-03 21:00:00 TS 12.8666 118.552 main 192 192 PPP______PPP__ WP031952 12.9198 118.565 75 1 12.7550 118.527 9 986 0 0 12.7625 118.535 4 68 986 12.9198 118.565 TC 75 12.9229 118.556 3 75 12.9198 118.565 75 983 210 10 303
1952180N05144 1952 36 WP MM EMMA 1952-07-04 00:00:00 TS 13.1667 118.133 986 tokyo main 239 239 OOO______OOO__ jtwc_wp WP031952 13.2000 118.200 80 1 13.1000 118.000 9 986 0 0 0 13.1000 118.000 4 68 986 13.2000 118.200 TC 80 13.2000 118.200 4 80 13.2000 118.200 80 983 180 11 310
1952180N05144 1952 36 WP MM EMMA 1952-07-04 03:00:00 TS 13.5944 117.673 main 282 282 PPP______PPP__ WP031952 13.5975 117.722 82 1 13.6048 117.592 9 984 0 0 13.5549 117.527 4 72 984 13.5975 117.722 TC 82 13.6141 117.749 4 81 13.5975 117.722 82 982 180 13 316
1952180N05144 1952 36 WP MM EMMA 1952-07-04 06:00:00 TS 14.1219 117.190 983 tokyo main 322 319 OOO______OPO__ jtwc_wp WP031952 14.1000 117.200 85 2 14.2000 117.200 9 983 0 0 0 14.1000 117.100 4 77 983 14.1000 117.200 TC 85 14.1312 117.242 4 82 14.1000 117.200 85 981 180 15 320
1952180N05144 1952 36 WP MM EMMA 1952-07-04 09:00:00 TS 14.7128 116.706 main 352 348 PPP______PPP__ WP031952 14.6849 116.692 85 2 14.8149 116.730 9 980 0 0 14.6998 116.715 4 82 980 14.6849 116.692 TC 85 14.7076 116.713 4 83 14.6849 116.692 85 980 180 15 322
1952180N05144 1952 36 WP MM EMMA 1952-07-04 12:00:00 TS 15.3167 116.217 978 tokyo main 382 380 OOO______OOO__ jtwc_wp WP031952 15.3000 116.200 85 2 15.4000 116.200 9 978 0 0 0 15.3000 116.300 5 87 978 15.3000 116.200 TC 85 15.3000 116.200 4 85 15.3000 116.200 85 980 180 15 320
1952180N05144 1952 36 WP MM EMMA 1952-07-04 15:00:00 TS 15.8493 115.727 main 428 427 PPP______PPP__ WP031952 15.8574 115.735 87 2 15.8575 115.607 9 977 0 0 15.8000 115.780 5 87 977 15.8574 115.735 TC 87 15.8664 115.769 4 86 15.8574 115.735 87 979 180 14 318
1952180N05144 1952 36 WP MM EMMA 1952-07-04 18:00:00 TS 16.3727 115.243 976 tokyo main 482 482 OOO______OPO__ jtwc_wp WP031952 16.4000 115.300 90 2 16.3000 115.000 9 976 0 0 0 16.3000 115.200 5 87 976 16.4000 115.300 TC 90 16.4364 115.357 4 87 16.4000 115.300 90 978 180 14 320
1952180N05144 1952 36 WP MM EMMA 1952-07-04 21:00:00 TS 16.9362 114.788 main 502 419 PPP______PPP__ WP031952 16.9648 114.907 90 2 16.8347 114.450 9 975 0 0 16.8998 114.615 5 87 975 16.9648 114.907 TC 90 16.9883 114.941 4 88 16.9648 114.907 90 977 180 14 321
1952180N05144 1952 36 WP MM EMMA 1952-07-05 00:00:00 TS 17.4833 114.317 975 tokyo main 419 344 OOO______OOO__ jtwc_wp WP031952 17.5000 114.500 90 2 17.4000 113.900 9 975 0 0 0 17.5000 114.000 5 87 975 17.5000 114.500 TC 90 17.5000 114.500 4 90 17.5000 114.500 90 976 180 14 318
1952180N05144 1952 36 WP MM EMMA 1952-07-05 03:00:00 TS 17.9843 113.786 main 344 276 PPP______PPP__ WP031952 17.9799 114.022 95 2 17.9649 113.307 9 975 0 0 18.0301 113.327 5 87 975 17.9799 114.022 TC 95 17.9712 114.016 4 91 17.9799 114.022 95 975 180 14 313
1952180N05144 1952 36 WP MM EMMA 1952-07-05 06:00:00 TS 18.4328 113.234 975 tokyo main 267 199 OOO______OPO__ jtwc_wp WP031952 18.4000 113.500 100 3 18.5000 112.700 9 975 0 0 0 18.5000 112.700 5 87 975 18.4000 113.500 TC 100 18.3969 113.502 4 92 18.4000 113.500 100 974 180 13 309
1952180N05144 1952 36 WP MM EMMA 1952-07-05 09:00:00 TS 18.8297 112.692 main 199 133 PPP______PPP__ WP031952 18.7799 112.957 97 3 18.9646 112.122 9 976 0 0 18.8998 112.197 5 82 977 18.7799 112.957 TC 97 18.7742 112.963 4 93 18.7799 112.957 97 974 180 13 306
1952180N05144 1952 36 WP MM EMMA 1952-07-05 12:00:00 TS 19.1833 112.150 978 tokyo main 133 63 OOO______OOO__ jtwc_wp WP031952 19.1000 112.400 95 2 19.4000 111.500 9 978 0 0 0 19.3000 111.800 4 77 980 19.1000 112.400 TC 95 19.1000 112.400 4 95 19.1000 112.400 95 975 180 12 304
1952180N05144 1952 36 WP MM EMMA 1952-07-05 15:00:00 TS 19.5177 111.602 main 63 20 PPP______PPP__ WP031952 19.3722 111.865 90 2 19.8724 110.773 9 980 0 0 19.7699 111.455 4 67 982 19.3722 111.865 TC 90 19.3473 111.788 4 88 19.3722 111.865 90 976 180 12 302
1952180N05144 1952 36 WP MM EMMA 1952-07-05 18:00:00 TS 19.8251 111.043 982 tokyo main 10 0 OOO______OPO__ jtwc_wp WP031952 19.6000 111.300 85 2 20.3000 110.000 9 982 0 0 0 20.3000 111.200 3 58 985 19.6000 111.300 TC 85 19.5507 111.161 4 82 19.6000 111.300 85 978 180 12 299
1952180N05144 1952 36 WP MM EMMA 1952-07-05 21:00:00 TS 20.1076 110.471 main 10 0 PPP______PPP__ WP031952 19.7778 110.620 77 1 20.6445 109.265 9 983 0 0 20.9140 111.146 3 53 985 19.7778 110.620 TC 77 19.7536 110.553 4 76 19.7778 110.620 77 979 180 12 298
1952180N05144 1952 36 WP MM EMMA 1952-07-06 00:00:00 TS 20.4000 109.900 985 tokyo main 10 0 OOO______OOO__ jtwc_wp WP031952 20.0000 110.000 70 1 20.9000 108.500 9 985 0 0 0 21.5000 110.900 3 48 985 20.0000 110.000 TC 70 20.0000 110.000 4 70 20.0000 110.000 70 981 180 12 302
1952180N05144 1952 36 WP MM EMMA 1952-07-06 03:00:00 TS 20.7537 109.375 main 31 31 PPP______PPP__ WP031952 20.3695 109.620 60 0 21.1090 107.710 9 987 0 0 21.9816 110.153 3 38 987 20.3695 109.620 TC 60 20.3231 109.525 4 61 20.3695 109.620 60 984 180 12 304
1952180N05144 1952 36 WP MM EMMA 1952-07-06 06:00:00 TS 21.1020 108.802 989 tokyo main 53 11 OOO______OPO__ jtwc_wp WP031952 20.8000 109.300 50 0 21.2000 106.800 9 989 0 0 0 22.3000 109.000 1 29 990 20.8000 109.300 TC 50 20.7122 109.115 4 52 20.8000 109.300 50 987 180 13 298
1952180N05144 1952 36 WP MM EMMA 1952-07-06 09:00:00 TS 21.3892 108.113 main 11 0 PPP______PPP__ WP031952 21.2105 108.886 42 0 21.1447 105.704 9 991 0 0 22.4135 107.569 1 992 21.2105 108.886 TC 42 21.1452 108.747 4 43 21.2105 108.886 42 990 180 15 291
1952180N05144 1952 36 WP MM EMMA 1952-07-06 12:00:00 TS 21.6333 107.350 993 tokyo main 0 OOO______OOO__ jtwc_wp WP031952 21.6000 108.400 35 0 21.0000 104.500 2 993 0 0 0 22.4000 106.000 0 995 21.6000 108.400 TC 35 21.6000 108.400 2 35 21.6000 108.400 35 993 180 15 289

Digital Typhoon Data and Search

About IBTrACS Database

This database is a web-friendly format of International Best Track Archive for Climate Stewardship (IBTrACS), a global best track data archive curated by NOAA dating back to 1842.

Updated: 2021-10-21